createdAt,value
2023-04-20T00:00:25.570Z,101240.13
2023-04-20T00:02:54.406Z,101230.59
2023-04-20T00:05:23.197Z,101232.13
2023-04-20T00:07:51.652Z,101242.56
2023-04-20T00:10:21.466Z,101225.66
2023-04-20T00:12:49.925Z,101220.00
2023-04-20T00:15:18.176Z,101223.13
2023-04-20T00:17:46.524Z,101212.06
2023-04-20T00:20:15.509Z,101200.59
2023-04-20T00:22:43.960Z,101195.09
2023-04-20T00:25:12.146Z,101199.41
2023-04-20T00:27:41.873Z,101191.81
2023-04-20T00:30:11.072Z,101188.56
2023-04-20T00:32:39.370Z,101190.22
2023-04-20T00:35:10.898Z,101180.22
2023-04-20T00:37:58.745Z,101182.50
2023-04-20T00:40:27.128Z,101160.97
2023-04-20T00:42:57.078Z,101163.41
2023-04-20T00:45:25.451Z,101158.25
2023-04-20T00:47:54.078Z,101146.56
2023-04-20T00:50:22.452Z,101153.91
2023-04-20T00:52:51.004Z,101150.00
2023-04-20T00:55:20.960Z,101151.28
2023-04-20T00:57:49.898Z,101135.78
2023-04-20T01:00:20.228Z,101131.91
2023-04-20T01:02:48.534Z,101134.66
2023-04-20T01:05:17.077Z,101128.28
2023-04-20T01:07:45.892Z,101125.78
2023-04-20T01:10:14.361Z,101123.88
2023-04-20T01:12:43.393Z,101121.97
2023-04-20T01:15:11.914Z,101114.09
2023-04-20T01:17:41.519Z,101114.91
2023-04-20T01:20:12.532Z,101114.84
2023-04-20T01:22:46.721Z,101110.63
2023-04-20T01:25:15.410Z,101106.88
2023-04-20T01:27:43.820Z,101101.25
2023-04-20T01:30:12.936Z,101096.66
2023-04-20T01:32:41.930Z,101088.47
2023-04-20T01:35:10.608Z,101078.69
2023-04-20T01:37:39.167Z,101082.56
2023-04-20T01:40:09.790Z,101064.56
2023-04-20T01:42:38.109Z,101060.84
2023-04-20T01:45:06.984Z,101063.00
2023-04-20T01:47:35.803Z,101055.91
2023-04-20T01:50:04.372Z,101056.25
2023-04-20T01:52:32.634Z,101049.69
2023-04-20T01:55:01.175Z,101042.84
2023-04-20T01:57:30.837Z,101050.50
2023-04-20T01:59:59.048Z,101038.53
2023-04-20T02:02:27.690Z,101040.13
2023-04-20T02:04:56.240Z,101040.97
2023-04-20T02:07:24.543Z,101033.66
2023-04-20T02:09:52.720Z,101036.94
2023-04-20T02:12:20.968Z,101034.22
2023-04-20T02:14:50.761Z,101029.81
2023-04-20T02:17:19.688Z,101020.56
2023-04-20T02:19:48.181Z,101029.81
2023-04-20T02:22:16.453Z,101029.81
2023-04-20T02:24:44.714Z,101020.00
2023-04-20T02:27:13.046Z,101019.47
2023-04-20T02:29:41.395Z,101019.75
2023-04-20T02:32:11.178Z,101022.50
2023-04-20T02:34:39.411Z,101021.63
2023-04-20T02:37:07.558Z,101020.53
2023-04-20T02:39:35.832Z,101012.94
2023-04-20T02:42:04.069Z,101014.00
2023-04-20T02:44:32.314Z,101002.31
2023-04-20T02:47:00.487Z,101009.66
2023-04-20T02:49:30.759Z,101008.53
2023-04-20T02:51:59.028Z,101002.28
2023-04-20T02:54:27.231Z,101009.63
2023-04-20T02:56:57.797Z,101002.56
2023-04-20T02:59:26.780Z,101005.84
2023-04-20T03:01:55.010Z,101003.97
2023-04-20T03:04:23.485Z,101002.03
2023-04-20T03:06:53.614Z,100991.97
2023-04-20T03:09:21.986Z,100994.69
2023-04-20T03:11:50.509Z,100993.81
2023-04-20T03:14:18.782Z,100980.75
2023-04-20T03:16:47.681Z,100975.31
2023-04-20T03:19:17.051Z,100982.63
2023-04-20T03:21:50.997Z,100983.97
2023-04-20T03:24:20.537Z,100986.72
2023-04-20T03:26:48.928Z,100987.81
2023-04-20T03:29:17.371Z,100984.59
2023-04-20T03:31:46.014Z,100983.53
2023-04-20T03:34:14.233Z,100985.97
2023-04-20T03:36:42.546Z,100973.75
2023-04-20T03:39:11.381Z,100969.84
2023-04-20T03:41:41.022Z,100967.13
2023-04-20T03:44:09.343Z,100969.84
2023-04-20T03:46:37.605Z,100966.31
2023-04-20T03:49:14.649Z,100963.28
2023-04-20T03:51:42.932Z,100968.22
2023-04-20T03:54:11.238Z,100963.84
2023-04-20T03:56:40.741Z,100960.56
2023-04-20T03:59:09.006Z,100967.66
2023-04-20T04:01:37.490Z,100957.59
2023-04-20T04:04:06.379Z,100953.75
2023-04-20T04:06:34.750Z,100946.97
2023-04-20T04:09:03.389Z,100952.41
2023-04-20T04:11:31.681Z,100952.38
2023-04-20T04:14:01.292Z,100950.19
2023-04-20T04:16:29.780Z,100943.66
2023-04-20T04:18:57.977Z,100941.41
2023-04-20T04:21:27.698Z,100946.34
2023-04-20T04:23:55.917Z,100943.59
2023-04-20T04:26:24.867Z,100951.19
2023-04-20T04:28:53.562Z,100947.41
2023-04-20T04:31:37.386Z,100943.00
2023-04-20T04:34:05.777Z,100947.66
2023-04-20T04:36:34.211Z,100948.94
2023-04-20T04:39:02.394Z,100943.06
2023-04-20T04:41:30.828Z,100949.31
2023-04-20T04:43:59.513Z,100953.34
2023-04-20T04:46:28.594Z,100951.41
2023-04-20T04:49:01.246Z,100953.56
2023-04-20T04:51:29.852Z,100958.47
2023-04-20T04:53:58.095Z,100949.31
2023-04-20T04:56:26.837Z,100951.69
2023-04-20T04:58:55.532Z,100958.50
2023-04-20T05:01:23.769Z,100963.91
2023-04-20T05:03:52.295Z,100962.09
2023-04-20T05:06:22.051Z,100959.38
2023-04-20T05:08:50.301Z,100967.03
2023-04-20T05:11:18.587Z,100968.09
2023-04-20T05:13:48.677Z,100968.03
2023-04-20T05:16:17.781Z,100975.09
2023-04-20T05:18:46.262Z,100966.97
2023-04-20T05:21:15.163Z,100975.13
2023-04-20T05:23:45.119Z,100972.69
2023-04-20T05:26:13.370Z,100974.03
2023-04-20T05:28:41.642Z,100973.97
2023-04-20T05:31:09.950Z,100973.75
2023-04-20T05:33:38.126Z,100971.81
2023-04-20T05:36:09.609Z,100959.91
2023-04-20T05:38:38.303Z,100975.41
2023-04-20T05:41:08.017Z,100977.06
2023-04-20T05:43:36.282Z,100969.97
2023-04-20T05:46:04.861Z,100970.78
2023-04-20T05:48:33.548Z,100969.66
2023-04-20T05:51:02.092Z,100982.78
2023-04-20T05:53:30.334Z,100975.25
2023-04-20T05:55:58.774Z,100980.97
2023-04-20T05:58:37.438Z,100977.69
2023-04-20T06:01:06.876Z,100990.72
2023-04-20T06:03:35.758Z,100992.84
2023-04-20T06:06:04.612Z,100989.84
2023-04-20T06:08:32.878Z,100984.94
2023-04-20T06:11:01.514Z,100984.78
2023-04-20T06:13:29.859Z,100985.25
2023-04-20T06:15:59.460Z,100991.69
2023-04-20T06:18:29.437Z,100995.94
2023-04-20T06:20:58.063Z,100993.53
2023-04-20T06:23:27.657Z,100979.88
2023-04-20T06:25:56.083Z,100985.81
2023-04-20T06:28:25.059Z,100983.06
2023-04-20T06:30:54.099Z,100983.06
2023-04-20T06:33:25.717Z,100985.44
2023-04-20T06:35:54.733Z,100984.22
2023-04-20T06:38:23.885Z,100984.81
2023-04-20T06:40:52.459Z,100986.63
2023-04-20T06:43:20.873Z,100984.81
2023-04-20T06:45:49.193Z,100989.03
2023-04-20T06:48:30.225Z,100982.78
2023-04-20T06:51:01.914Z,100981.03
2023-04-20T06:53:30.362Z,100980.84
2023-04-20T06:55:59.128Z,100996.19
2023-04-20T06:58:27.324Z,100984.09
2023-04-20T07:00:55.628Z,100967.91
2023-04-20T07:03:24.284Z,100965.19
2023-04-20T07:05:52.819Z,100958.06
2023-04-20T07:08:22.491Z,100965.41
2023-04-20T07:10:50.826Z,100973.31
2023-04-20T07:13:20.322Z,100976.16
2023-04-20T07:15:50.646Z,100974.59
2023-04-20T07:18:18.955Z,100968.22
2023-04-20T07:20:47.437Z,100967.94
2023-04-20T07:23:15.859Z,100965.50
2023-04-20T07:25:45.400Z,100964.47
2023-04-20T07:28:13.919Z,100970.47
2023-04-20T07:30:42.124Z,100966.13
2023-04-20T07:33:11.218Z,100969.44
2023-04-20T07:35:39.773Z,100959.38
2023-04-20T07:38:08.136Z,100954.75
2023-04-20T07:40:36.693Z,100958.56
2023-04-20T07:43:06.278Z,100963.94
2023-04-20T07:45:34.751Z,100948.72
2023-04-20T07:48:05.330Z,100946.03
2023-04-20T07:50:33.920Z,100954.75
2023-04-20T07:53:02.143Z,100954.75
2023-04-20T07:55:30.324Z,100953.63
2023-04-20T07:57:58.644Z,100957.19
2023-04-20T08:00:28.285Z,100948.19
2023-04-20T08:02:57.509Z,100945.47
2023-04-20T08:05:26.416Z,100948.22
2023-04-20T08:07:54.886Z,100950.34
2023-04-20T08:10:23.143Z,100944.91
2023-04-20T08:12:53.327Z,100937.31
2023-04-20T08:15:21.653Z,100942.75
2023-04-20T08:17:52.885Z,100944.38
2023-04-20T08:20:21.596Z,100928.03
2023-04-20T08:22:50.777Z,100934.31
2023-04-20T08:25:19.376Z,100931.56
2023-04-20T08:27:47.644Z,100929.94
2023-04-20T08:30:16.429Z,100939.47
2023-04-20T08:32:44.830Z,100934.28
2023-04-20T08:35:14.493Z,100932.94
2023-04-20T08:37:43.095Z,100932.09
2023-04-20T08:40:11.908Z,100931.88
2023-04-20T08:42:41.624Z,100940.72
2023-04-20T08:45:11.305Z,100926.38
2023-04-20T08:47:40.153Z,100916.59
2023-04-20T08:50:09.654Z,100923.13
2023-04-20T08:52:39.708Z,100920.69
2023-04-20T08:55:08.452Z,100918.22
2023-04-20T08:57:36.997Z,100918.25
2023-04-20T09:00:07.793Z,100918.75
2023-04-20T09:02:36.446Z,100919.00
2023-04-20T09:05:06.102Z,100926.41
2023-04-20T09:07:34.669Z,100919.88
2023-04-20T09:10:04.615Z,100930.50
2023-04-20T09:12:41.932Z,100928.56
2023-04-20T09:15:11.515Z,100940.03
2023-04-20T09:17:41.009Z,100948.16
2023-04-20T09:20:11.152Z,100943.22
2023-04-20T09:23:13.046Z,100952.88
2023-04-20T09:25:43.600Z,100954.88
2023-04-20T09:28:13.198Z,100971.97
2023-04-20T09:30:42.565Z,100975.50
2023-04-20T09:33:12.524Z,100964.16
2023-04-20T09:35:41.969Z,100955.44
2023-04-20T09:38:10.771Z,100955.22
2023-04-20T09:40:39.253Z,100956.66
2023-04-20T09:43:15.158Z,100946.38
2023-04-20T09:45:46.739Z,100955.00
2023-04-20T09:48:19.054Z,100943.03
2023-04-20T09:50:49.976Z,100940.50
2023-04-20T09:53:20.471Z,100936.25
2023-04-20T09:55:49.556Z,100935.78
2023-04-20T09:58:20.739Z,100923.94
2023-04-20T10:00:49.616Z,100929.31
2023-04-20T10:03:19.081Z,100916.25
2023-04-20T10:05:47.557Z,100920.09
2023-04-20T10:08:16.057Z,100926.59
2023-04-20T10:10:45.644Z,100925.25
2023-04-20T10:13:14.265Z,100913.97
2023-04-20T10:15:44.194Z,100923.38
2023-04-20T10:18:17.530Z,100916.88
2023-04-20T10:20:46.501Z,100918.56
2023-04-20T10:23:16.359Z,100912.25
2023-04-20T10:25:47.382Z,100909.13
2023-04-20T10:28:16.525Z,100917.72
2023-04-20T10:30:55.050Z,100917.38
2023-04-20T10:33:23.859Z,100909.25
2023-04-20T10:35:55.124Z,100913.72
2023-04-20T10:38:33.073Z,100907.06
2023-04-20T10:41:07.030Z,100912.06
2023-04-20T10:43:38.882Z,100893.31
2023-04-20T10:46:15.714Z,100898.03
2023-04-20T10:48:53.936Z,100900.88
2023-04-20T10:51:22.439Z,100904.22
2023-04-20T10:54:01.111Z,100907.50
2023-04-20T10:56:37.237Z,100906.59
2023-04-20T10:59:09.084Z,100903.50
2023-04-20T11:01:38.950Z,100907.41
2023-04-20T11:04:07.505Z,100909.50
2023-04-20T11:06:36.186Z,100914.13
2023-04-20T11:09:20.640Z,100892.69
2023-04-20T11:11:59.044Z,100910.72
2023-04-20T11:14:27.430Z,100894.63
2023-04-20T11:16:57.110Z,100880.25
2023-04-20T11:19:26.827Z,100880.50
2023-04-20T11:21:55.125Z,100862.38
2023-04-20T11:24:24.642Z,100881.75
2023-04-20T11:26:54.515Z,100870.47
2023-04-20T11:29:29.927Z,100880.06
2023-04-20T11:32:00.004Z,100883.13
2023-04-20T11:34:28.973Z,100868.78
2023-04-20T11:36:57.308Z,100867.38
2023-04-20T11:39:26.019Z,100864.88
2023-04-20T11:41:54.539Z,100861.72
2023-04-20T11:44:23.644Z,100864.75
2023-04-20T11:46:53.282Z,100857.16
2023-04-20T11:49:23.124Z,100862.84
2023-04-20T11:51:53.103Z,100870.88
2023-04-20T11:54:21.975Z,100863.41
2023-04-20T11:56:51.647Z,100871.22
2023-04-20T11:59:21.152Z,100872.09
2023-04-20T12:01:49.774Z,100863.16
2023-04-20T12:04:18.357Z,100863.00
2023-04-20T12:06:48.253Z,100858.50
2023-04-20T12:09:17.056Z,100869.31
2023-04-20T12:11:45.556Z,100869.69
2023-04-20T12:14:13.831Z,100857.81
2023-04-20T12:16:42.148Z,100855.25
2023-04-20T12:19:10.862Z,100860.97
2023-04-20T12:21:39.187Z,100861.34
2023-04-20T12:24:08.925Z,100864.50
2023-04-20T12:26:38.659Z,100857.88
2023-04-20T12:29:07.465Z,100864.84
2023-04-20T12:31:36.363Z,100871.66
2023-04-20T12:34:04.996Z,100872.72
2023-04-20T12:36:35.078Z,100866.53
2023-04-20T12:39:04.503Z,100874.13
2023-04-20T12:41:34.570Z,100870.75
2023-04-20T12:44:05.832Z,100868.16
2023-04-20T12:46:35.699Z,100876.72
2023-04-20T12:49:04.278Z,100881.06
2023-04-20T12:51:35.594Z,100888.41
2023-04-20T12:54:03.876Z,100875.03
2023-04-20T12:56:32.113Z,100885.31
2023-04-20T12:59:01.764Z,100885.69
2023-04-20T13:01:30.164Z,100883.25
2023-04-20T13:03:58.851Z,100878.00
2023-04-20T13:06:27.916Z,100875.19
2023-04-20T13:08:56.131Z,100868.72
2023-04-20T13:11:26.014Z,100872.13
2023-04-20T13:13:56.560Z,100860.63
2023-04-20T13:16:26.893Z,100872.13
2023-04-20T13:18:55.548Z,100863.84
2023-04-20T13:21:24.132Z,100866.59
2023-04-20T13:24:00.161Z,100859.09
2023-04-20T13:26:28.560Z,100865.34
2023-04-20T13:28:58.296Z,100859.28
2023-04-20T13:31:27.975Z,100850.13
2023-04-20T13:33:56.418Z,100849.16
2023-04-20T13:36:25.066Z,100864.31
2023-04-20T13:38:53.551Z,100855.78
2023-04-20T13:41:22.032Z,100850.53
2023-04-20T13:43:50.436Z,100846.59
2023-04-20T13:46:19.855Z,100842.81
2023-04-20T13:48:49.704Z,100840.03
2023-04-20T13:51:17.945Z,100832.84
2023-04-20T13:53:48.044Z,100837.50
2023-04-20T13:56:16.376Z,100836.56
2023-04-20T13:58:44.938Z,100825.75
2023-04-20T14:01:14.196Z,100824.78
2023-04-20T14:03:42.780Z,100828.47
2023-04-20T14:06:12.914Z,100821.63
2023-04-20T14:08:41.095Z,100814.53
2023-04-20T14:11:09.459Z,100814.38
2023-04-20T14:13:38.002Z,100811.47
2023-04-20T14:16:09.395Z,100805.81
2023-04-20T14:18:37.997Z,100818.19
2023-04-20T14:21:06.456Z,100818.34
2023-04-20T14:23:36.173Z,100814.16
2023-04-20T14:26:04.538Z,100809.53
2023-04-20T14:28:33.521Z,100814.78
2023-04-20T14:31:02.875Z,100811.31
2023-04-20T14:33:31.302Z,100814.56
2023-04-20T14:35:59.551Z,100808.09
2023-04-20T14:38:28.096Z,100805.25
2023-04-20T14:40:57.811Z,100808.34
2023-04-20T14:43:26.031Z,100802.88
2023-04-20T14:45:55.225Z,100795.66
2023-04-20T14:48:25.060Z,100791.03
2023-04-20T14:50:54.157Z,100791.19
2023-04-20T14:53:22.692Z,100788.41
2023-04-20T14:55:51.761Z,100808.94
2023-04-20T14:58:21.585Z,100795.94
2023-04-20T15:00:50.306Z,100792.63
2023-04-20T15:03:18.923Z,100796.41
2023-04-20T15:05:48.039Z,100787.47
2023-04-20T15:08:16.424Z,100783.09
2023-04-20T15:10:45.538Z,100777.31
2023-04-20T15:13:14.152Z,100780.38
2023-04-20T15:15:48.713Z,100779.44
2023-04-20T15:18:17.854Z,100776.38
2023-04-20T15:20:47.398Z,100778.56
2023-04-20T15:23:16.653Z,100773.66
2023-04-20T15:25:47.468Z,100762.59
2023-04-20T15:28:16.548Z,100769.88
2023-04-20T15:30:47.876Z,100764.19
2023-04-20T15:33:16.369Z,100763.47
2023-04-20T15:35:45.781Z,100764.50
2023-04-20T15:38:14.410Z,100765.22
2023-04-20T15:40:42.851Z,100762.06
2023-04-20T15:43:11.916Z,100764.69
2023-04-20T15:45:41.292Z,100755.66
2023-04-20T15:48:12.593Z,100752.78
2023-04-20T15:50:41.089Z,100757.47
2023-04-20T15:53:09.565Z,100759.75
2023-04-20T15:55:39.137Z,100754.03
2023-04-20T15:58:07.422Z,100755.38
2023-04-20T16:00:36.644Z,100743.91
2023-04-20T16:03:05.676Z,100753.34
2023-04-20T16:05:36.012Z,100763.53
2023-04-20T16:08:05.350Z,100760.53
2023-04-20T16:10:34.303Z,100765.03
2023-04-20T16:13:03.521Z,100764.72
2023-04-20T16:15:31.882Z,100764.84
2023-04-20T16:18:00.322Z,100757.22
2023-04-20T16:20:29.111Z,100758.81
2023-04-20T16:22:58.680Z,100751.13
2023-04-20T16:25:28.314Z,100752.59
2023-04-20T16:27:56.612Z,100750.91
2023-04-20T16:30:24.886Z,100752.19
2023-04-20T16:32:53.739Z,100758.94
2023-04-20T16:35:24.046Z,100759.94
2023-04-20T16:37:55.954Z,100753.66
2023-04-20T16:40:26.293Z,100756.47
2023-04-20T16:42:54.856Z,100762.88
2023-04-20T16:45:23.362Z,100765.19
2023-04-20T16:47:51.981Z,100775.66
2023-04-20T16:50:20.495Z,100776.25
2023-04-20T16:52:49.121Z,100773.72
2023-04-20T16:55:17.502Z,100773.88
2023-04-20T16:57:47.158Z,100789.34
2023-04-20T17:00:16.019Z,100795.88
2023-04-20T17:02:44.473Z,100801.63
2023-04-20T17:05:13.191Z,100815.22
2023-04-20T17:07:41.460Z,100813.34
2023-04-20T17:10:10.020Z,100826.38
2023-04-20T17:12:41.656Z,100827.06
2023-04-20T17:15:12.393Z,100823.34
2023-04-20T17:17:40.676Z,100839.31
2023-04-20T17:20:09.735Z,100847.56
2023-04-20T17:22:37.999Z,100836.47
2023-04-20T17:25:07.864Z,100835.69
2023-04-20T17:27:36.349Z,100846.09
2023-04-20T17:30:05.369Z,100844.56
2023-04-20T17:32:35.218Z,100842.97
2023-04-20T17:35:04.255Z,100840.47
2023-04-20T17:37:32.651Z,100829.88
2023-04-20T17:40:01.361Z,100837.75
2023-04-20T17:42:29.744Z,100834.00
2023-04-20T17:44:58.174Z,100843.28
2023-04-20T17:47:28.391Z,100850.09
2023-04-20T17:49:59.761Z,100844.03
2023-04-20T17:52:28.324Z,100853.56
2023-04-20T17:54:56.762Z,100852.25
2023-04-20T17:57:25.486Z,100858.28
2023-04-20T17:59:53.759Z,100862.69
2023-04-20T18:02:22.424Z,100848.50
2023-04-20T18:04:51.266Z,100858.59
2023-04-20T18:07:21.423Z,100849.59
2023-04-20T18:09:51.486Z,100847.44
2023-04-20T18:12:20.855Z,100858.31
2023-04-20T18:14:49.315Z,100852.59
2023-04-20T18:17:17.860Z,100850.69
2023-04-20T18:19:46.608Z,100849.59
2023-04-20T18:22:15.459Z,100847.97
2023-04-20T18:24:45.145Z,100852.88
2023-04-20T18:27:13.532Z,100836.81
2023-04-20T18:29:41.867Z,100834.13
2023-04-20T18:32:10.069Z,100840.38
2023-04-20T18:34:38.496Z,100839.81
2023-04-20T18:37:07.391Z,100835.19
2023-04-20T18:39:35.609Z,100837.09
2023-04-20T18:42:05.258Z,100836.81
2023-04-20T18:44:33.490Z,100839.31
2023-04-20T18:47:01.821Z,100837.38
2023-04-20T18:49:30.577Z,100833.03
2023-04-20T18:51:58.950Z,100821.59
2023-04-20T18:54:27.568Z,100812.56
2023-04-20T18:56:56.581Z,100810.66
2023-04-20T18:59:26.108Z,100818.00
2023-04-20T19:01:54.398Z,100811.47
2023-04-20T19:04:23.102Z,100821.28
2023-04-20T19:06:51.751Z,100818.84
2023-04-20T19:09:20.303Z,100821.81
2023-04-20T19:11:48.725Z,100819.66
2023-04-20T19:14:17.085Z,100827.28
2023-04-20T19:16:49.675Z,100822.66
2023-04-20T19:19:22.733Z,100826.22
2023-04-20T19:21:51.683Z,100817.50
2023-04-20T19:24:20.925Z,100812.34
2023-04-20T19:26:49.561Z,100813.16
2023-04-20T19:29:17.980Z,100810.44
2023-04-20T19:31:48.528Z,100810.69
2023-04-20T19:34:18.667Z,100811.25
2023-04-20T19:36:47.355Z,100817.19
2023-04-20T19:39:17.244Z,100812.06
2023-04-20T19:41:50.171Z,100820.22
2023-04-20T19:44:20.274Z,100814.75
2023-04-20T19:46:54.158Z,100816.38
2023-04-20T19:49:23.638Z,100807.41
2023-04-20T19:51:59.030Z,100806.84
2023-04-20T19:54:30.528Z,100807.13
2023-04-20T19:56:58.989Z,100808.47
2023-04-20T19:59:29.954Z,100808.75
2023-04-20T20:02:03.785Z,100796.78
2023-04-20T20:04:37.962Z,100798.13
2023-04-20T20:07:06.670Z,100802.22
2023-04-20T20:09:35.065Z,100798.41
2023-04-20T20:12:08.725Z,100797.88
2023-04-20T20:14:38.320Z,100787.50
2023-04-20T20:17:08.496Z,100788.59
2023-04-20T20:19:36.817Z,100792.97
2023-04-20T20:22:05.519Z,100779.88
2023-04-20T20:24:34.470Z,100782.06
2023-04-20T20:27:05.990Z,100779.06
2023-04-20T20:29:35.391Z,100776.88
2023-04-20T20:32:05.159Z,100774.97
2023-04-20T20:34:35.365Z,100777.16
2023-04-20T20:37:04.574Z,100773.91
2023-04-20T20:39:33.272Z,100773.06
2023-04-20T20:42:02.436Z,100767.34
2023-04-20T20:44:33.354Z,100780.97
2023-04-20T20:47:02.331Z,100781.78
2023-04-20T20:49:32.083Z,100764.63
2023-04-20T20:52:02.985Z,100762.19
2023-04-20T20:54:31.463Z,100760.00
2023-04-20T20:56:59.616Z,100754.78
2023-04-20T20:59:28.702Z,100746.09
2023-04-20T21:01:58.319Z,100747.47
2023-04-20T21:04:27.275Z,100746.66
2023-04-20T21:06:55.741Z,100742.84
2023-04-20T21:09:25.415Z,100739.53
2023-04-20T21:11:53.903Z,100754.28
2023-04-20T21:14:22.516Z,100758.09
2023-04-20T21:16:50.979Z,100766.53
2023-04-20T21:19:20.023Z,100772.00
2023-04-20T21:21:48.917Z,100759.19
2023-04-20T21:24:18.097Z,100751.56
2023-04-20T21:26:48.313Z,100746.38
2023-04-20T21:29:17.039Z,100752.66
2023-04-20T21:31:45.792Z,100750.47
2023-04-20T21:34:14.218Z,100754.28
2023-04-20T21:36:43.682Z,100746.13
2023-04-20T21:39:12.140Z,100736.84
2023-04-20T21:41:40.447Z,100730.78
2023-04-20T21:44:11.189Z,100719.63
2023-04-20T21:46:40.371Z,100719.34
2023-04-20T21:49:09.790Z,100729.47
2023-04-20T21:51:38.672Z,100721.00
2023-04-20T21:54:06.896Z,100733.00
2023-04-20T21:56:35.965Z,100736.84
2023-04-20T21:59:06.047Z,100734.09
2023-04-20T22:01:35.905Z,100723.97
2023-04-20T22:04:05.118Z,100723.75
2023-04-20T22:06:33.523Z,100712.34
2023-04-20T22:09:01.787Z,100699.81
2023-04-20T22:11:30.087Z,100702.72
2023-04-20T22:13:58.381Z,100709.84
2023-04-20T22:16:28.472Z,100701.16
2023-04-20T22:18:58.461Z,100706.84
2023-04-20T22:21:26.765Z,100709.59
2023-04-20T22:23:55.364Z,100711.78
2023-04-20T22:26:23.604Z,100713.41
2023-04-20T22:28:51.943Z,100695.44
2023-04-20T22:31:20.453Z,100695.69
2023-04-20T22:33:49.005Z,100706.31
2023-04-20T22:36:18.748Z,100701.41
2023-04-20T22:38:47.170Z,100701.72
2023-04-20T22:41:17.262Z,100695.47
2023-04-20T22:43:45.925Z,100693.84
2023-04-20T22:46:14.155Z,100701.50
2023-04-20T22:48:42.418Z,100703.38
2023-04-20T22:51:12.884Z,100693.31
2023-04-20T22:53:42.616Z,100696.56
2023-04-20T22:56:11.168Z,100695.81
2023-04-20T22:58:39.472Z,100681.94
2023-04-20T23:01:07.734Z,100678.69
2023-04-20T23:03:36.135Z,100677.09
2023-04-20T23:06:05.045Z,100676.03
2023-04-20T23:08:33.452Z,100666.78
2023-04-20T23:11:04.616Z,100679.00
2023-04-20T23:13:33.176Z,100671.66
2023-04-20T23:16:01.547Z,100674.94
2023-04-20T23:18:30.065Z,100668.69
2023-04-20T23:20:58.277Z,100664.09
2023-04-20T23:23:26.558Z,100663.53
2023-04-20T23:25:54.909Z,100668.44
2023-04-20T23:28:24.614Z,100669.53
2023-04-20T23:30:52.789Z,100669.00
2023-04-20T23:33:20.958Z,100665.72
2023-04-20T23:35:49.164Z,100666.56
2023-04-20T23:38:18.062Z,100667.38
2023-04-20T23:40:46.326Z,100660.84
2023-04-20T23:43:14.504Z,100659.22
2023-04-20T23:45:45.511Z,100658.94
2023-04-20T23:48:13.873Z,100648.88
2023-04-20T23:50:42.064Z,100659.72
2023-04-20T23:53:10.329Z,100646.41
2023-04-20T23:55:38.533Z,100640.16
2023-04-20T23:58:06.764Z,100636.91
